createdAt,value
2023-02-17T00:03:00.524Z,4.73
2023-02-17T00:08:02.495Z,4.47
2023-02-17T00:13:04.803Z,3.83
2023-02-17T00:18:07.107Z,4.53
2023-02-17T00:23:09.294Z,3.77
2023-02-17T00:28:11.623Z,4.00
2023-02-17T00:33:13.790Z,4.53
2023-02-17T00:38:17.679Z,4.53
2023-02-17T00:43:19.664Z,3.43
2023-02-17T00:48:22.662Z,4.60
2023-02-17T00:53:25.162Z,5.90
2023-02-17T00:58:27.688Z,4.33
2023-02-17T01:03:30.378Z,3.87
2023-02-17T01:08:33.063Z,5.07
2023-02-17T01:13:35.084Z,6.77
2023-02-17T01:18:37.058Z,3.07
2023-02-17T01:23:39.074Z,4.47
2023-02-17T01:28:42.950Z,5.33
2023-02-17T01:33:45.082Z,5.40
2023-02-17T01:38:47.751Z,4.37
2023-02-17T01:44:18.375Z,2.90
2023-02-17T01:49:35.742Z,4.10
2023-02-17T01:54:45.677Z,4.77
2023-02-17T01:59:48.863Z,7.57
2023-02-17T02:04:54.090Z,3.00
2023-02-17T02:09:58.755Z,4.03
2023-02-17T02:15:09.547Z,3.37
2023-02-17T02:20:48.643Z,3.90
2023-02-17T02:26:23.009Z,3.13
2023-02-17T02:32:22.195Z,3.47
2023-02-17T02:37:38.562Z,3.00
2023-02-17T02:42:42.247Z,3.20
2023-02-17T02:47:48.593Z,2.73
2023-02-17T02:53:39.694Z,4.73
2023-02-17T02:59:16.651Z,4.27
2023-02-17T03:04:36.516Z,4.67
2023-02-17T03:09:41.440Z,4.80
2023-02-17T03:14:44.688Z,3.13
2023-02-17T03:19:47.801Z,2.47
2023-02-17T03:24:52.188Z,4.23
2023-02-17T03:29:55.404Z,4.73
2023-02-17T03:34:57.900Z,4.77
2023-02-17T03:40:00.443Z,2.67
2023-02-17T03:45:02.470Z,3.70
2023-02-17T03:50:05.931Z,5.00
2023-02-17T03:55:08.382Z,7.47
2023-02-17T04:00:10.903Z,4.23
2023-02-17T04:05:15.842Z,3.70
2023-02-17T04:10:18.477Z,3.20
2023-02-17T04:15:20.725Z,4.87
2023-02-17T04:20:24.525Z,3.03
2023-02-17T04:25:26.976Z,3.97
2023-02-17T04:30:29.667Z,3.23
2023-02-17T04:35:31.931Z,5.53
2023-02-17T04:40:34.424Z,3.53
2023-02-17T04:45:38.392Z,2.93
2023-02-17T04:50:40.611Z,4.70
2023-02-17T04:55:42.846Z,4.17
2023-02-17T05:00:47.431Z,4.00
2023-02-17T05:05:50.229Z,4.60
2023-02-17T05:10:52.738Z,4.83
2023-02-17T05:15:55.059Z,4.77
2023-02-17T05:20:57.465Z,2.40
2023-02-17T05:25:59.526Z,5.70
2023-02-17T05:31:02.875Z,4.67
2023-02-17T05:36:08.587Z,3.60
2023-02-17T05:41:10.568Z,4.47
2023-02-17T05:46:13.244Z,3.30
2023-02-17T05:51:17.372Z,2.60
2023-02-17T05:56:19.356Z,2.60
2023-02-17T06:01:21.685Z,3.60
2023-02-17T06:06:24.192Z,4.20
2023-02-17T06:11:26.571Z,4.93
2023-02-17T06:16:28.916Z,5.83
2023-02-17T06:21:31.729Z,3.60
2023-02-17T06:26:33.749Z,4.03
2023-02-17T06:31:35.883Z,2.83
2023-02-17T06:36:37.970Z,3.63
2023-02-17T06:41:39.998Z,2.97
2023-02-17T06:46:42.086Z,3.30
2023-02-17T06:51:44.185Z,5.43
2023-02-17T06:56:46.323Z,3.53
2023-02-17T07:01:49.975Z,4.70
2023-02-17T07:06:52.704Z,4.80
2023-02-17T07:11:55.156Z,2.97
2023-02-17T07:16:57.530Z,3.97
2023-02-17T07:21:59.591Z,3.27
2023-02-17T07:27:01.802Z,3.03
2023-02-17T07:32:04.128Z,4.13
2023-02-17T07:37:06.198Z,2.40
2023-02-17T07:42:09.887Z,3.03
2023-02-17T07:47:12.123Z,3.33
2023-02-17T07:52:18.577Z,2.17
2023-02-17T07:57:20.663Z,3.90
2023-02-17T08:02:22.802Z,3.13
2023-02-17T08:07:25.006Z,3.87
2023-02-17T08:12:45.858Z,2.90
2023-02-17T08:17:50.974Z,4.53
2023-02-17T08:22:53.628Z,2.57
2023-02-17T08:27:55.971Z,2.17
2023-02-17T08:32:58.455Z,2.17
2023-02-17T08:38:00.511Z,1.90
2023-02-17T08:43:03.676Z,2.40
2023-02-17T08:48:05.981Z,4.43
2023-02-17T08:53:08.458Z,4.10
2023-02-17T08:58:10.491Z,9.60
2023-02-17T09:03:13.023Z,2.10
2023-02-17T09:08:15.180Z,4.07
2023-02-17T09:13:18.041Z,2.90
2023-02-17T09:18:23.842Z,3.30
2023-02-17T09:23:27.298Z,2.00
2023-02-17T09:28:29.482Z,3.67
2023-02-17T09:33:31.614Z,1.97
2023-02-17T09:38:34.397Z,1.97
2023-02-17T09:43:36.745Z,4.40
2023-02-17T09:48:41.128Z,1.83
2023-02-17T09:54:13.554Z,1.87
2023-02-17T09:59:29.896Z,2.67
2023-02-17T10:04:41.289Z,1.63
2023-02-17T10:10:22.994Z,2.03
2023-02-17T10:15:29.981Z,2.27
2023-02-17T10:20:42.258Z,1.87
2023-02-17T10:26:11.426Z,1.63
2023-02-17T10:31:17.762Z,1.57
2023-02-17T10:36:34.059Z,2.23
2023-02-17T10:41:39.259Z,1.50
2023-02-17T10:46:43.674Z,1.50
2023-02-17T10:51:46.211Z,1.57
2023-02-17T10:56:54.209Z,1.40
2023-02-17T11:02:17.709Z,3.43
2023-02-17T11:07:26.972Z,2.33
2023-02-17T11:12:42.301Z,2.80
2023-02-17T11:17:45.569Z,1.70
2023-02-17T11:23:03.182Z,1.80
2023-02-17T11:28:13.251Z,3.23
2023-02-17T11:33:22.721Z,1.10
2023-02-17T11:38:38.200Z,1.17
2023-02-17T11:43:51.271Z,1.73
2023-02-17T11:49:16.264Z,1.43
2023-02-17T11:54:42.827Z,1.27
2023-02-17T12:00:25.577Z,1.83
2023-02-17T12:05:48.533Z,1.50
2023-02-17T12:11:27.189Z,1.10
2023-02-17T12:16:45.916Z,1.60
2023-02-17T12:22:20.734Z,0.90
2023-02-17T12:27:56.702Z,1.37
2023-02-17T12:33:25.803Z,3.37
2023-02-17T12:38:34.095Z,1.20
2023-02-17T12:44:05.731Z,1.20
2023-02-17T12:49:19.061Z,0.97
2023-02-17T12:54:35.985Z,2.40
2023-02-17T12:59:53.447Z,0.93
2023-02-17T13:05:04.712Z,1.13
2023-02-17T13:10:27.564Z,2.63
2023-02-17T13:15:43.051Z,0.90
2023-02-17T13:20:54.063Z,1.00
2023-02-17T13:26:22.470Z,1.13
2023-02-17T13:31:26.986Z,0.80
2023-02-17T13:36:32.174Z,0.80
2023-02-17T13:41:48.614Z,1.00
2023-02-17T13:46:52.364Z,0.80
2023-02-17T13:52:06.828Z,0.97
2023-02-17T13:57:23.818Z,1.10
2023-02-17T14:02:35.692Z,0.90
2023-02-17T14:07:39.417Z,0.90
2023-02-17T14:12:41.607Z,0.80
2023-02-17T14:17:43.700Z,1.13
2023-02-17T14:22:53.254Z,1.13
2023-02-17T14:28:01.285Z,0.90
2023-02-17T14:33:18.511Z,0.97
2023-02-17T14:38:26.764Z,0.90
2023-02-17T14:43:29.077Z,1.40
2023-02-17T14:48:31.228Z,1.63
2023-02-17T14:53:36.685Z,2.27
2023-02-17T14:58:39.264Z,1.10
2023-02-17T15:03:41.876Z,1.37
2023-02-17T15:08:46.033Z,1.37
2023-02-17T15:13:48.707Z,2.87
2023-02-17T15:18:51.244Z,2.27
2023-02-17T15:23:55.014Z,1.83
2023-02-17T15:28:58.445Z,2.80
2023-02-17T15:34:01.997Z,1.97
2023-02-17T15:39:04.636Z,2.93
2023-02-17T15:44:12.589Z,2.50
2023-02-17T15:49:15.090Z,2.60
2023-02-17T15:54:19.503Z,1.80
2023-02-17T15:59:27.730Z,2.40
2023-02-17T16:04:30.225Z,2.00
2023-02-17T16:09:32.664Z,3.33
2023-02-17T16:14:37.865Z,1.50
2023-02-17T16:19:40.511Z,1.77
2023-02-17T16:24:43.192Z,2.13
2023-02-17T16:29:45.628Z,2.50
2023-02-17T16:34:48.539Z,2.43
2023-02-17T16:39:51.242Z,1.60
2023-02-17T16:44:53.681Z,1.80
2023-02-17T16:49:56.315Z,1.80
2023-02-17T16:54:58.829Z,1.80
2023-02-17T17:00:01.314Z,2.10
2023-02-17T17:05:03.883Z,4.83
2023-02-17T17:10:17.474Z,2.10
2023-02-17T17:15:20.730Z,2.47
2023-02-17T17:20:28.153Z,2.13
2023-02-17T17:25:32.026Z,2.67
2023-02-17T17:30:38.068Z,2.87
2023-02-17T17:35:40.697Z,1.87
2023-02-17T17:40:49.110Z,2.83
2023-02-17T17:45:52.279Z,2.00
2023-02-17T17:50:54.899Z,2.13
2023-02-17T17:55:57.777Z,1.90
2023-02-17T18:01:01.600Z,2.33
2023-02-17T18:06:04.985Z,2.80
2023-02-17T18:11:08.791Z,2.10
2023-02-17T18:16:11.333Z,3.50
2023-02-17T18:21:13.912Z,2.53
2023-02-17T18:26:17.066Z,3.30
2023-02-17T18:31:19.875Z,3.20
2023-02-17T18:36:26.538Z,2.90
2023-02-17T18:41:32.877Z,4.00
2023-02-17T18:46:37.911Z,2.07
2023-02-17T18:51:40.482Z,1.83
2023-02-17T18:56:42.955Z,2.70
2023-02-17T19:01:45.531Z,1.80
2023-02-17T19:06:48.132Z,1.70
2023-02-17T19:11:50.512Z,1.80
2023-02-17T19:16:53.197Z,1.37
2023-02-17T19:21:55.924Z,1.30
2023-02-17T19:26:58.699Z,1.40
2023-02-17T19:32:02.409Z,1.67
2023-02-17T19:37:05.287Z,1.67
2023-02-17T19:42:08.337Z,1.60
2023-02-17T19:47:10.814Z,1.40
2023-02-17T19:52:13.384Z,3.97
2023-02-17T19:57:19.259Z,1.30
2023-02-17T20:02:21.756Z,1.27
2023-02-17T20:07:24.273Z,1.60
2023-02-17T20:12:27.101Z,1.30
2023-02-17T20:17:30.047Z,1.40
2023-02-17T20:22:32.504Z,1.43
2023-02-17T20:27:35.537Z,1.23
2023-02-17T20:32:38.047Z,1.20
2023-02-17T20:37:40.545Z,1.40
2023-02-17T20:42:43.239Z,1.00
2023-02-17T20:47:45.648Z,0.80
2023-02-17T20:52:48.910Z,1.80
2023-02-17T20:57:51.590Z,1.30
2023-02-17T21:02:54.717Z,1.07
2023-02-17T21:07:58.577Z,0.83
2023-02-17T21:13:01.627Z,0.63
2023-02-17T21:18:05.725Z,0.70
2023-02-17T21:23:08.412Z,0.60
2023-02-17T21:28:11.050Z,0.70
2023-02-17T21:33:13.597Z,0.63
2023-02-17T21:38:16.915Z,0.60
2023-02-17T21:43:38.878Z,0.73
2023-02-17T21:48:42.224Z,0.40
2023-02-17T21:53:45.476Z,0.60
2023-02-17T21:58:48.906Z,0.60
2023-02-17T22:03:51.707Z,0.80
2023-02-17T22:08:54.968Z,0.70
2023-02-17T22:14:00.019Z,0.53
2023-02-17T22:19:03.032Z,1.60
2023-02-17T22:24:05.835Z,1.77
2023-02-17T22:29:09.470Z,0.93
2023-02-17T22:34:15.882Z,0.40
2023-02-17T22:39:18.297Z,1.00
2023-02-17T22:44:20.687Z,0.50
2023-02-17T22:49:23.310Z,0.70
2023-02-17T22:54:25.712Z,0.83
2023-02-17T22:59:28.237Z,0.60
2023-02-17T23:04:30.705Z,1.20
2023-02-17T23:09:33.247Z,1.27
2023-02-17T23:14:39.007Z,0.50
2023-02-17T23:19:42.410Z,1.03
2023-02-17T23:24:46.454Z,0.80
2023-02-17T23:29:48.961Z,0.80
2023-02-17T23:34:51.646Z,0.80
2023-02-17T23:39:54.166Z,1.97
2023-02-17T23:44:56.797Z,0.93
2023-02-17T23:49:59.443Z,0.77
2023-02-17T23:55:01.948Z,1.00
